Time;durP1;ratioP1;P1;durP2;ratioP2;P2;SDS_P1;SDS_P2;PMS_P1;PMS_P2;Temp;Humidity;BMP_temperature;BMP_pressure;BME280_temperature;BME280_humidity;BME280_pressure;Samples;Min_cycle;Max_cycle;Signal;HPM_P1;HPM_P2
2023/12/11 00:01:37;;;;;;;23.90;4.17;;;27.60;72.20;;;;;;6101085;23;20025;-70
2023/12/11 00:04:05;;;;;;;15.05;3.38;;;27.70;72.60;;;;;;6126024;23;20247;-70
2023/12/11 00:06:32;;;;;;;12.80;2.92;;;27.50;72.60;;;;;;6125952;23;20025;-70
2023/12/11 00:08:59;;;;;;;17.83;3.45;;;27.40;73.30;;;;;;6126569;23;20014;-70
2023/12/11 00:11:26;;;;;;;11.52;3.50;;;27.40;73.80;;;;;;6125791;23;20013;-70
2023/12/11 00:13:53;;;;;;;13.57;3.05;;;27.50;74.20;;;;;;6126133;23;20138;-70
2023/12/11 00:16:21;;;;;;;19.50;4.05;;;27.50;72.50;;;;;;6126091;23;20009;-69
2023/12/11 00:18:51;;;;;;;16.10;3.55;;;27.40;72.40;;;;;;6126152;23;20009;-70
2023/12/11 00:21:19;;;;;;;13.35;3.63;;;27.30;72.90;;;;;;6126145;23;20006;-70
2023/12/11 00:23:46;;;;;;;19.55;3.92;;;27.30;73.70;;;;;;6125855;23;20064;-70
2023/12/11 00:26:13;;;;;;;17.48;3.22;;;27.20;72.80;;;;;;6125810;23;20010;-70
2023/12/11 00:28:41;;;;;;;22.67;4.20;;;27.20;73.30;;;;;;6125615;23;20009;-70
2023/12/11 00:31:08;;;;;;;18.35;3.42;;;27.30;74.50;;;;;;6125939;23;20006;-70
2023/12/11 00:33:36;;;;;;;16.35;3.33;;;27.30;74.10;;;;;;6125585;23;20006;-69
2023/12/11 00:36:03;;;;;;;12.55;3.40;;;27.50;74.20;;;;;;6125817;23;20009;-70
2023/12/11 00:38:31;;;;;;;12.43;3.22;;;27.50;72.30;;;;;;6125980;23;20126;-70
2023/12/11 00:40:58;;;;;;;15.23;3.40;;;27.30;73.40;;;;;;6125753;23;20001;-70
2023/12/11 00:43:26;;;;;;;14.73;3.05;;;27.20;72.80;;;;;;6125674;23;19997;-69
2023/12/11 00:45:53;;;;;;;12.52;2.90;;;27.20;73.80;;;;;;6125420;23;20013;-70
2023/12/11 00:48:20;;;;;;;12.88;3.10;;;27.20;74.10;;;;;;6125598;23;20441;-70
2023/12/11 00:50:47;;;;;;;12.77;2.97;;;27.20;73.50;;;;;;6125373;23;20117;-70
2023/12/11 00:53:15;;;;;;;20.23;3.22;;;27.20;73.30;;;;;;6125730;23;20010;-70
2023/12/11 00:55:42;;;;;;;14.15;3.15;;;27.30;74.10;;;;;;6125907;23;20006;-70
2023/12/11 00:58:09;;;;;;;13.63;3.03;;;27.30;73.20;;;;;;6126107;23;20078;-70
2023/12/11 01:00:37;;;;;;;14.45;3.10;;;27.40;73.30;;;;;;6125542;23;20009;-70
2023/12/11 01:03:04;;;;;;;12.73;3.30;;;27.50;73.50;;;;;;6125168;23;20074;-70
2023/12/11 01:05:31;;;;;;;12.05;3.60;;;27.40;73.40;;;;;;6125409;23;20006;-70
2023/12/11 01:07:59;;;;;;;14.02;3.20;;;27.40;73.20;;;;;;6125582;23;20005;-69
2023/12/11 01:10:26;;;;;;;16.25;3.50;;;27.40;73.40;;;;;;6125258;23;20016;-70
2023/12/11 01:12:54;;;;;;;12.35;3.08;;;27.40;72.40;;;;;;6125292;23;20500;-70
2023/12/11 01:15:22;;;;;;;18.65;3.97;;;27.50;73.50;;;;;;6125295;23;20005;-70
2023/12/11 01:17:49;;;;;;;18.90;3.13;;;27.40;73.10;;;;;;6099968;23;20036;-70
2023/12/11 01:20:16;;;;;;;13.38;3.05;;;27.40;74.70;;;;;;6125409;23;20002;-70
2023/12/11 01:22:43;;;;;;;13.68;3.30;;;27.40;73.90;;;;;;6125280;23;20001;-69
2023/12/11 01:25:11;;;;;;;15.85;3.10;;;27.40;73.80;;;;;;6126130;23;19998;-70
2023/12/11 01:27:38;;;;;;;16.33;3.00;;;27.40;74.40;;;;;;6125088;23;20010;-70
2023/12/11 01:30:07;;;;;;;15.70;3.00;;;27.40;72.70;;;;;;6125272;23;20014;-70
2023/12/11 01:32:34;;;;;;;14.48;2.88;;;27.30;72.80;;;;;;6125510;23;19998;-69
2023/12/11 01:35:01;;;;;;;17.40;3.33;;;27.30;73.90;;;;;;6125219;23;20045;-69
2023/12/11 01:37:28;;;;;;;13.35;3.33;;;27.30;72.50;;;;;;6125409;23;20006;-69
2023/12/11 01:39:56;;;;;;;15.18;2.83;;;27.40;73.00;;;;;;6125086;23;20431;-69
2023/12/11 01:42:23;;;;;;;12.50;2.92;;;27.40;71.50;;;;;;6125419;23;20460;-69
2023/12/11 01:44:50;;;;;;;12.77;2.85;;;27.40;73.70;;;;;;6125461;23;20081;-70
2023/12/11 01:47:17;;;;;;;12.88;3.15;;;27.50;72.40;;;;;;6125401;23;20013;-69
2023/12/11 01:49:45;;;;;;;13.27;3.05;;;27.50;72.70;;;;;;6125556;23;20017;-69
2023/12/11 01:52:12;;;;;;;12.70;2.75;;;27.40;72.10;;;;;;6094205;23;20022;-69
2023/12/11 01:54:39;;;;;;;13.75;3.13;;;27.40;73.70;;;;;;6094437;23;20403;-69
2023/12/11 01:57:07;;;;;;;11.27;3.08;;;27.50;72.30;;;;;;6096545;23;20066;-69
2023/12/11 01:59:35;;;;;;;14.52;3.90;;;27.40;72.10;;;;;;6097646;23;20094;-69
2023/12/11 02:02:03;;;;;;;13.18;3.30;;;27.40;72.20;;;;;;6072516;23;20045;-69
2023/12/11 02:04:31;;;;;;;15.45;3.00;;;27.40;72.80;;;;;;6097736;23;20379;-67
2023/12/11 02:06:58;;;;;;;12.85;2.72;;;27.40;72.50;;;;;;6098088;23;20169;-67
2023/12/11 02:09:29;;;;;;;18.40;3.25;;;27.40;71.70;;;;;;6097934;23;20022;-68
2023/12/11 02:11:56;;;;;;;10.95;2.78;;;27.40;72.30;;;;;;6097557;23;20010;-68
2023/12/11 02:14:23;;;;;;;12.30;2.75;;;27.30;71.90;;;;;;6096385;23;20007;-68
2023/12/11 02:16:51;;;;;;;13.35;3.28;;;27.40;71.80;;;;;;6096426;23;20002;-68
2023/12/11 02:19:18;;;;;;;13.75;3.30;;;27.40;72.30;;;;;;6098004;23;20034;-68
2023/12/11 02:21:45;;;;;;;13.30;2.75;;;27.40;73.00;;;;;;6097760;23;20007;-69
2023/12/11 02:24:23;;;;;;;17.48;3.55;;;27.40;72.60;;;;;;6097617;23;20413;-69
2023/12/11 02:26:50;;;;;;;10.68;2.45;;;27.50;72.50;;;;;;6096335;23;20048;-69
2023/12/11 02:29:17;;;;;;;11.80;3.17;;;27.50;72.00;;;;;;6096641;23;20064;-69
2023/12/11 02:31:44;;;;;;;9.98;2.72;;;27.50;71.60;;;;;;6097930;23;20002;-69
2023/12/11 02:34:12;;;;;;;12.02;2.83;;;27.50;70.90;;;;;;6097692;23;20006;-69
2023/12/11 02:36:39;;;;;;;12.43;3.45;;;27.40;70.40;;;;;;6097610;23;20341;-69
2023/12/11 02:39:06;;;;;;;11.05;2.70;;;27.50;72.20;;;;;;6097540;23;20093;-69
2023/12/11 02:41:33;;;;;;;12.82;3.33;;;27.40;71.10;;;;;;6097738;23;20425;-68
2023/12/11 02:44:01;;;;;;;11.63;3.50;;;27.40;71.90;;;;;;6097455;23;20496;-69
2023/12/11 02:46:28;;;;;;;14.07;3.75;;;27.40;70.80;;;;;;6097594;23;20311;-69
2023/12/11 02:48:55;;;;;;;16.15;3.53;;;27.30;70.60;;;;;;6097376;23;20014;-69
2023/12/11 02:51:23;;;;;;;15.52;4.45;;;27.30;70.50;;;;;;6105885;23;20006;-69
2023/12/11 02:53:50;;;;;;;11.80;3.80;;;27.30;71.10;;;;;;6126808;23;20020;-69
2023/12/11 02:56:17;;;;;;;12.75;4.88;;;27.30;70.80;;;;;;6126899;23;20005;-69
2023/12/11 02:58:44;;;;;;;10.30;3.83;;;27.20;71.40;;;;;;6126537;23;20336;-70
2023/12/11 03:01:12;;;;;;;17.52;4.75;;;27.10;71.10;;;;;;6126421;23;19998;-69
2023/12/11 03:03:39;;;;;;;16.10;4.78;;;27.10;72.80;;;;;;6126604;23;20037;-69
2023/12/11 03:06:08;;;;;;;16.38;4.65;;;27.10;71.30;;;;;;6126359;23;20002;-69
2023/12/11 03:08:37;;;;;;;13.85;5.40;;;27.10;71.80;;;;;;6126286;23;20002;-70
2023/12/11 03:11:05;;;;;;;12.88;4.85;;;27.20;73.20;;;;;;6125859;23;20446;-69
2023/12/11 03:13:32;;;;;;;14.50;4.97;;;27.10;71.70;;;;;;6126535;23;20029;-69
2023/12/11 03:15:59;;;;;;;10.52;4.53;;;27.00;71.90;;;;;;6126411;23;20012;-69
2023/12/11 03:18:26;;;;;;;14.20;4.78;;;27.00;72.40;;;;;;6127145;23;20006;-69
2023/12/11 03:20:54;;;;;;;17.00;4.35;;;27.00;72.30;;;;;;6126560;23;20013;-69
2023/12/11 03:23:21;;;;;;;16.25;4.57;;;27.10;72.50;;;;;;6126358;23;20070;-69
2023/12/11 03:25:49;;;;;;;17.33;4.70;;;27.10;71.60;;;;;;6126637;23;20334;-69
2023/12/11 03:28:16;;;;;;;10.07;3.58;;;27.10;72.20;;;;;;6126209;23;20002;-68
2023/12/11 03:30:43;;;;;;;12.07;3.25;;;27.20;71.20;;;;;;6126536;23;20006;-68
2023/12/11 03:33:10;;;;;;;16.38;3.78;;;27.10;71.70;;;;;;6126042;23;20492;-69
2023/12/11 03:35:38;;;;;;;12.73;3.28;;;27.20;71.90;;;;;;6126279;23;20012;-69
2023/12/11 03:38:05;;;;;;;12.50;3.40;;;27.20;71.20;;;;;;6126359;23;20005;-68
2023/12/11 03:40:32;;;;;;;16.23;3.67;;;27.20;71.80;;;;;;6126009;23;20009;-69
2023/12/11 03:43:00;;;;;;;10.35;3.22;;;27.20;72.00;;;;;;6125972;23;20014;-69
2023/12/11 03:45:27;;;;;;;9.30;2.60;;;27.20;71.90;;;;;;6126031;23;20014;-69
2023/12/11 03:47:55;;;;;;;12.43;3.47;;;27.20;71.60;;;;;;6126581;23;20426;-68
2023/12/11 03:50:22;;;;;;;19.10;3.40;;;27.20;71.80;;;;;;6126182;23;20014;-68
2023/12/11 03:52:49;;;;;;;14.05;2.78;;;27.20;72.20;;;;;;6125994;23;20497;-69
2023/12/11 03:55:16;;;;;;;14.05;2.42;;;27.20;71.80;;;;;;6126091;23;20002;-69
2023/12/11 03:57:44;;;;;;;12.43;2.55;;;27.10;71.30;;;;;;6125855;23;20009;-69
2023/12/11 04:00:12;;;;;;;10.13;2.80;;;27.10;72.20;;;;;;6125762;23;20002;-68
2023/12/11 04:02:39;;;;;;;10.15;2.30;;;27.00;72.20;;;;;;6125770;23;20429;-68
2023/12/11 04:05:07;;;;;;;12.27;2.45;;;27.00;72.60;;;;;;6125978;23;20005;-69
2023/12/11 04:07:34;;;;;;;9.57;2.65;;;27.00;72.00;;;;;;6125756;23;20010;-68
2023/12/11 04:10:03;;;;;;;9.77;2.65;;;27.10;73.10;;;;;;6125456;23;20017;-69
2023/12/11 04:12:30;;;;;;;10.35;2.58;;;27.10;72.90;;;;;;6125731;23;20390;-69
2023/12/11 04:14:57;;;;;;;11.25;2.50;;;27.10;71.80;;;;;;6125559;23;20014;-68
2023/12/11 04:17:24;;;;;;;12.00;2.80;;;27.20;73.20;;;;;;6125152;23;20323;-72
2023/12/11 04:19:52;;;;;;;6.88;2.22;;;27.10;72.50;;;;;;6123059;23;20441;-69
2023/12/11 04:22:20;;;;;;;10.35;2.42;;;27.10;71.80;;;;;;6096821;23;20406;-69
2023/12/11 04:24:47;;;;;;;15.13;3.15;;;27.10;72.50;;;;;;6122799;23;20368;-70
2023/12/11 04:27:14;;;;;;;9.80;2.95;;;27.10;72.30;;;;;;6122199;23;20477;-69
2023/12/11 04:29:42;;;;;;;8.70;2.70;;;27.00;72.80;;;;;;6122228;23;20027;-69
2023/12/11 04:32:09;;;;;;;11.90;2.78;;;26.90;72.30;;;;;;6122036;23;20341;-69
2023/12/11 04:34:36;;;;;;;13.75;2.90;;;26.90;72.00;;;;;;6122626;23;20006;-69
2023/12/11 04:37:03;;;;;;;10.57;2.50;;;26.90;72.60;;;;;;6122185;23;20006;-69
2023/12/11 04:39:31;;;;;;;10.63;3.00;;;26.90;73.10;;;;;;6122486;23;20341;-69
2023/12/11 04:41:58;;;;;;;10.10;2.80;;;26.90;72.00;;;;;;6123077;23;20006;-70
2023/12/11 04:44:25;;;;;;;10.23;2.55;;;26.80;72.00;;;;;;6122495;23;20037;-68
2023/12/11 04:46:53;;;;;;;10.20;2.50;;;26.80;72.30;;;;;;6122582;23;20374;-69
2023/12/11 04:49:20;;;;;;;8.63;2.42;;;26.80;72.60;;;;;;6093825;23;20072;-69
2023/12/11 04:51:47;;;;;;;10.65;2.78;;;26.80;72.60;;;;;;6121556;23;20032;-69
2023/12/11 04:54:14;;;;;;;10.52;2.72;;;26.70;72.50;;;;;;6122483;23;20065;-68
2023/12/11 04:56:42;;;;;;;5.97;2.10;;;26.80;72.50;;;;;;6122182;23;20081;-68
2023/12/11 04:59:09;;;;;;;11.07;2.50;;;26.80;72.30;;;;;;6122448;23;20333;-69
2023/12/11 05:01:36;;;;;;;10.15;2.58;;;26.70;72.30;;;;;;6121996;23;20010;-69
2023/12/11 05:04:03;;;;;;;9.00;2.20;;;26.70;72.40;;;;;;6121936;23;20014;-69
2023/12/11 05:06:31;;;;;;;9.98;2.50;;;26.70;72.40;;;;;;6121803;23;20010;-69
2023/12/11 05:08:58;;;;;;;9.38;2.40;;;26.70;71.10;;;;;;6122416;23;20020;-70
2023/12/11 05:11:25;;;;;;;14.18;3.08;;;26.70;71.60;;;;;;6122562;23;20057;-69
2023/12/11 05:13:53;;;;;;;8.10;2.33;;;26.70;72.10;;;;;;6122256;23;20022;-70
2023/12/11 05:16:20;;;;;;;12.75;2.90;;;26.80;72.60;;;;;;6121913;23;20006;-70
2023/12/11 05:18:47;;;;;;;9.43;2.15;;;26.70;71.60;;;;;;6121961;23;20006;-69
2023/12/11 05:21:14;;;;;;;8.50;2.25;;;26.60;72.10;;;;;;6095940;23;20041;-69
2023/12/11 05:23:43;;;;;;;8.10;2.28;;;26.60;72.90;;;;;;6121664;23;20060;-69
2023/12/11 05:26:10;;;;;;;11.88;3.08;;;26.70;73.30;;;;;;6122436;23;20433;-68
2023/12/11 05:28:37;;;;;;;8.38;2.30;;;26.60;72.30;;;;;;6121704;23;20546;-69
2023/12/11 05:31:04;;;;;;;12.52;2.58;;;26.60;72.50;;;;;;6122268;23;20121;-67
2023/12/11 05:33:32;;;;;;;6.55;1.92;;;26.60;74.40;;;;;;6120999;23;20041;-67
2023/12/11 05:35:59;;;;;;;10.80;2.58;;;26.50;75.20;;;;;;6121745;23;20010;-68
2023/12/11 05:38:26;;;;;;;10.68;2.30;;;26.30;76.90;;;;;;6121972;23;20017;-67
2023/12/11 05:40:53;;;;;;;13.98;2.53;;;26.10;75.60;;;;;;6122439;23;20033;-68
2023/12/11 05:43:21;;;;;;;16.05;2.70;;;26.00;75.30;;;;;;6121807;23;20016;-67
2023/12/11 05:45:48;;;;;;;12.57;2.50;;;25.90;76.10;;;;;;6122430;23;20069;-67
2023/12/11 05:48:15;;;;;;;11.18;2.17;;;25.80;76.40;;;;;;6121559;23;20006;-67
2023/12/11 05:50:43;;;;;;;10.38;2.42;;;25.80;78.20;;;;;;6119089;23;20076;-66
2023/12/11 05:53:10;;;;;;;12.68;2.45;;;25.80;77.40;;;;;;6122019;23;20010;-67
2023/12/11 05:55:37;;;;;;;14.05;2.53;;;25.80;77.20;;;;;;6121613;23;20441;-68
2023/12/11 05:58:04;;;;;;;12.18;2.67;;;25.80;77.80;;;;;;6121783;23;20002;-67
2023/12/11 06:00:32;;;;;;;9.10;2.30;;;25.80;78.00;;;;;;6121612;23;20399;-68
2023/12/11 06:02:59;;;;;;;11.10;2.30;;;25.80;77.70;;;;;;6122213;23;20364;-67
2023/12/11 06:05:26;;;;;;;12.60;2.58;;;25.70;77.90;;;;;;6122253;23;20022;-67
2023/12/11 06:07:53;;;;;;;11.43;2.80;;;25.60;77.30;;;;;;6121171;23;20017;-67
2023/12/11 06:10:21;;;;;;;10.27;2.50;;;25.50;77.40;;;;;;6121778;23;20010;-69
2023/12/11 06:12:48;;;;;;;11.77;2.70;;;25.50;77.90;;;;;;6121532;23;20037;-68
2023/12/11 06:15:15;;;;;;;9.27;2.40;;;25.50;78.30;;;;;;6121261;23;20060;-68
2023/12/11 06:17:43;;;;;;;9.13;2.60;;;25.60;78.30;;;;;;6096194;23;20012;-68
2023/12/11 06:20:11;;;;;;;13.10;2.75;;;25.60;78.10;;;;;;6121737;23;20097;-68
2023/12/11 06:22:38;;;;;;;8.10;2.10;;;25.60;78.30;;;;;;6121289;23;20057;-67
2023/12/11 06:25:05;;;;;;;10.30;2.92;;;25.60;78.50;;;;;;6122059;23;20033;-69
2023/12/11 06:27:33;;;;;;;8.45;2.20;;;25.60;78.00;;;;;;6121161;23;20348;-70
2023/12/11 06:30:00;;;;;;;7.47;2.00;;;25.60;79.10;;;;;;6121860;23;20440;-70
2023/12/11 06:32:27;;;;;;;7.97;2.33;;;25.60;77.80;;;;;;6121542;23;20013;-69
2023/12/11 06:34:55;;;;;;;10.38;3.05;;;25.50;78.10;;;;;;6121938;23;20006;-67
2023/12/11 06:37:22;;;;;;;9.93;2.30;;;25.60;78.10;;;;;;6121396;23;20013;-67
2023/12/11 06:39:49;;;;;;;8.35;2.15;;;25.50;77.80;;;;;;6121570;23;20078;-67
2023/12/11 06:42:17;;;;;;;10.57;2.40;;;25.50;77.90;;;;;;6121380;23;20016;-68
2023/12/11 06:44:44;;;;;;;10.40;2.58;;;25.50;77.60;;;;;;6121646;23;20445;-69
2023/12/11 06:47:12;;;;;;;8.50;2.33;;;25.60;77.30;;;;;;6123110;23;20403;-68
2023/12/11 06:49:42;;;;;;;10.98;2.47;;;25.60;77.80;;;;;;6120868;23;20445;-69
2023/12/11 06:52:09;;;;;;;8.52;2.40;;;25.70;76.70;;;;;;6123260;23;20018;-69
2023/12/11 06:54:36;;;;;;;10.70;2.60;;;25.60;77.90;;;;;;6122551;23;20093;-68
2023/12/11 06:57:04;;;;;;;10.18;2.78;;;25.50;77.40;;;;;;6123270;23;20013;-68
2023/12/11 06:59:32;;;;;;;12.48;2.95;;;25.50;77.70;;;;;;6123265;23;20389;-68
2023/12/11 07:01:59;;;;;;;9.35;3.03;;;25.40;77.70;;;;;;6123764;23;20034;-68
2023/12/11 07:04:27;;;;;;;10.30;3.45;;;25.40;78.00;;;;;;6123375;23;20016;-68
2023/12/11 07:06:54;;;;;;;12.45;4.53;;;25.30;78.00;;;;;;6123125;23;20006;-68
2023/12/11 07:09:21;;;;;;;15.93;6.93;;;25.30;78.00;;;;;;6122173;23;20493;-68
2023/12/11 07:11:49;;;;;;;11.85;6.88;;;25.30;78.70;;;;;;6122167;23;20077;-67
2023/12/11 07:14:18;;;;;;;15.20;8.40;;;25.40;78.50;;;;;;6122680;23;20006;-68
2023/12/11 07:16:45;;;;;;;14.10;9.20;;;25.40;78.20;;;;;;6122768;23;20010;-68
2023/12/11 07:19:12;;;;;;;15.40;9.15;;;25.30;77.60;;;;;;6122642;23;20030;-68
2023/12/11 07:21:43;;;;;;;15.48;9.02;;;25.30;77.80;;;;;;6122259;23;20081;-68
2023/12/11 07:24:10;;;;;;;20.35;11.02;;;25.30;78.20;;;;;;6122594;23;20013;-68
2023/12/11 07:26:38;;;;;;;16.55;11.35;;;25.20;78.20;;;;;;6122538;23;20366;-68
2023/12/11 07:29:07;;;;;;;18.42;10.50;;;25.20;78.70;;;;;;6122841;23;20634;-68
2023/12/11 07:31:35;;;;;;;17.45;10.30;;;25.10;78.90;;;;;;6122609;23;20420;-69
2023/12/11 07:34:02;;;;;;;15.85;10.60;;;25.10;79.00;;;;;;6122873;23;20014;-68
2023/12/11 07:36:29;;;;;;;18.98;11.20;;;25.10;79.80;;;;;;6123104;23;20160;-68
2023/12/11 07:38:57;;;;;;;18.17;10.25;;;25.00;80.00;;;;;;6122304;23;20353;-68
2023/12/11 07:41:24;;;;;;;18.20;10.45;;;25.00;79.70;;;;;;6121897;23;20001;-67
2023/12/11 07:43:51;;;;;;;16.55;10.05;;;24.90;79.60;;;;;;6122142;23;20339;-67
2023/12/11 07:46:24;;;;;;;16.75;11.07;;;24.80;79.70;;;;;;6123040;23;20009;-68
2023/12/11 07:48:53;;;;;;;15.20;10.07;;;24.80;80.00;;;;;;6122404;23;20009;-68
2023/12/11 07:51:23;;;;;;;15.70;8.90;;;24.80;79.20;;;;;;6121553;23;20096;-69
2023/12/11 07:53:50;;;;;;;15.65;7.90;;;24.80;79.60;;;;;;6122185;23;20056;-70
2023/12/11 07:56:22;;;;;;;13.48;6.85;;;24.80;80.00;;;;;;6122028;23;20013;-68
2023/12/11 07:58:52;;;;;;;11.23;5.53;;;24.70;80.00;;;;;;6122715;23;20017;-69
2023/12/11 08:01:20;;;;;;;14.73;5.88;;;24.70;79.70;;;;;;6121668;23;20014;-68
2023/12/11 08:03:47;;;;;;;8.93;4.45;;;24.80;79.60;;;;;;6121818;23;20006;-68
2023/12/11 08:06:15;;;;;;;11.13;3.75;;;24.80;79.00;;;;;;6122800;23;20064;-68
2023/12/11 08:08:45;;;;;;;10.20;3.50;;;24.80;78.10;;;;;;6122214;23;20318;-68
2023/12/11 08:11:17;;;;;;;6.80;2.22;;;24.80;78.10;;;;;;6122618;23;20041;-68
2023/12/11 08:13:45;;;;;;;6.22;2.05;;;24.70;76.90;;;;;;6095837;23;20061;-68
2023/12/11 08:16:13;;;;;;;8.48;2.55;;;24.70;77.30;;;;;;6121155;23;20371;-68
2023/12/11 08:18:42;;;;;;;7.47;2.30;;;24.70;78.00;;;;;;6095973;23;20006;-75
2023/12/11 08:21:09;;;;;;;11.07;2.40;;;24.70;77.90;;;;;;6096893;23;20013;-68
2023/12/11 08:23:38;;;;;;;8.63;2.25;;;24.70;78.50;;;;;;6125494;23;20002;-68
2023/12/11 08:26:06;;;;;;;10.35;2.58;;;24.80;79.00;;;;;;6125381;23;20447;-68
2023/12/11 08:28:33;;;;;;;11.02;2.70;;;24.80;79.50;;;;;;6125042;23;20006;-68
2023/12/11 08:31:01;;;;;;;15.63;2.80;;;24.80;79.60;;;;;;6125585;23;20444;-68
2023/12/11 08:33:28;;;;;;;10.80;2.50;;;24.80;80.00;;;;;;6124976;23;20002;-68
2023/12/11 08:35:55;;;;;;;9.15;2.70;;;24.80;80.20;;;;;;6124916;23;20006;-68
2023/12/11 08:38:23;;;;;;;15.13;2.40;;;24.80;80.60;;;;;;6124812;23;20029;-69
2023/12/11 08:40:51;;;;;;;11.35;2.55;;;24.80;80.20;;;;;;6124591;23;20441;-68
2023/12/11 08:43:18;;;;;;;10.68;2.45;;;24.80;80.60;;;;;;6125101;23;20001;-69
2023/12/11 08:45:45;;;;;;;11.32;2.50;;;24.80;80.50;;;;;;6125246;23;20410;-68
2023/12/11 08:48:13;;;;;;;11.85;3.20;;;24.80;80.50;;;;;;6098612;23;20421;-69
2023/12/11 08:50:40;;;;;;;11.02;2.58;;;24.80;80.20;;;;;;6125364;23;20014;-68
2023/12/11 08:53:08;;;;;;;13.88;2.97;;;24.80;80.30;;;;;;6124911;23;20040;-68
2023/12/11 08:55:35;;;;;;;9.93;2.20;;;24.80;80.80;;;;;;6125167;23;20057;-68
2023/12/11 08:58:03;;;;;;;13.65;2.63;;;24.80;80.50;;;;;;6125169;23;20028;-68
2023/12/11 09:00:30;;;;;;;11.40;2.63;;;24.80;80.90;;;;;;6125043;23;20005;-68
2023/12/11 09:02:58;;;;;;;10.48;2.60;;;24.80;81.30;;;;;;6125058;23;20333;-68
2023/12/11 09:05:25;;;;;;;9.40;2.35;;;24.80;81.50;;;;;;6125395;23;20012;-68
2023/12/11 09:07:52;;;;;;;7.95;2.22;;;24.80;81.60;;;;;;6099624;23;20081;-67
2023/12/11 09:10:20;;;;;;;14.48;3.05;;;24.80;81.90;;;;;;6098979;23;20281;-68
2023/12/11 09:12:47;;;;;;;15.65;2.28;;;24.80;82.10;;;;;;6125260;23;20009;-68
2023/12/11 09:15:14;;;;;;;10.55;2.40;;;24.80;82.20;;;;;;6124591;23;20037;-68
2023/12/11 09:17:42;;;;;;;20.00;2.30;;;24.70;82.30;;;;;;6125208;23;20006;-68
2023/12/11 09:20:10;;;;;;;12.00;2.10;;;24.70;82.50;;;;;;6125102;23;20013;-68
2023/12/11 09:22:41;;;;;;;13.32;2.88;;;24.60;82.80;;;;;;6124891;23;20012;-68
2023/12/11 09:25:08;;;;;;;14.45;2.88;;;24.70;82.90;;;;;;6124067;23;20425;-68
2023/12/11 09:27:37;;;;;;;12.50;2.58;;;24.70;83.00;;;;;;6124810;23;20006;-68
2023/12/11 09:30:05;;;;;;;9.80;2.50;;;24.60;83.30;;;;;;6125266;23;20041;-68
2023/12/11 09:32:33;;;;;;;9.13;2.08;;;24.70;83.30;;;;;;6125203;23;20033;-68
2023/12/11 09:35:04;;;;;;;11.65;2.65;;;24.60;83.30;;;;;;6124733;23;20105;-68
2023/12/11 09:37:31;;;;;;;13.50;2.55;;;24.60;83.70;;;;;;6124609;23;20413;-68
2023/12/11 09:39:59;;;;;;;11.25;2.42;;;24.60;83.60;;;;;;6125167;23;20391;-68
2023/12/11 09:42:26;;;;;;;10.20;2.20;;;24.70;83.50;;;;;;6125013;23;20421;-68
2023/12/11 09:44:54;;;;;;;11.18;2.83;;;24.70;83.40;;;;;;6099166;23;20002;-68
2023/12/11 09:47:23;;;;;;;9.75;2.25;;;24.80;83.30;;;;;;6075477;23;20060;-68
2023/12/11 09:49:51;;;;;;;17.35;2.58;;;24.70;83.40;;;;;;6124843;23;20017;-68
2023/12/11 09:52:19;;;;;;;12.90;2.75;;;24.70;83.30;;;;;;6124376;23;20026;-68
2023/12/11 09:54:47;;;;;;;11.10;2.22;;;24.60;83.60;;;;;;6099362;23;20041;-68
2023/12/11 09:57:16;;;;;;;14.82;2.90;;;24.70;83.80;;;;;;6099492;23;20021;-68
2023/12/11 09:59:43;;;;;;;12.48;2.85;;;24.60;84.10;;;;;;6124219;23;20061;-69
2023/12/11 10:02:17;;;;;;;13.93;2.50;;;24.60;84.00;;;;;;6124837;23;20002;-69
2023/12/11 10:05:03;;;;;;;10.95;2.30;;;24.60;84.00;;;;;;6099414;23;20556;-69
2023/12/11 10:07:34;;;;;;;15.85;3.17;;;24.70;84.10;;;;;;6124405;23;20010;-68
2023/12/11 10:10:37;;;;;;;10.60;2.60;;;24.60;84.30;;;;;;6124819;23;20456;-68
2023/12/11 10:13:05;;;;;;;10.10;2.60;;;24.60;84.30;;;;;;6063339;23;20333;-68
2023/12/11 10:15:34;;;;;;;14.88;2.55;;;24.60;84.00;;;;;;6124206;23;20006;-68
2023/12/11 10:18:08;;;;;;;13.48;2.53;;;24.60;84.10;;;;;;6124529;23;20014;-68
2023/12/11 10:20:36;;;;;;;13.73;2.55;;;24.60;83.70;;;;;;6126173;23;20013;-68
2023/12/11 10:23:14;;;;;;;12.40;2.17;;;24.60;83.80;;;;;;6126183;23;20009;-68
2023/12/11 10:25:42;;;;;;;18.23;2.75;;;24.70;83.80;;;;;;6126753;23;19998;-68
2023/12/11 10:28:11;;;;;;;14.35;2.63;;;24.70;84.00;;;;;;6126816;23;20492;-68
2023/12/11 10:30:54;;;;;;;14.90;3.20;;;24.70;83.80;;;;;;6126508;23;20017;-69
2023/12/11 10:33:23;;;;;;;14.02;2.67;;;24.70;84.10;;;;;;6126281;23;20002;-69
2023/12/11 10:35:50;;;;;;;10.88;2.15;;;24.70;83.70;;;;;;6126411;23;20024;-68
2023/12/11 10:38:24;;;;;;;12.23;3.13;;;24.70;84.00;;;;;;6100876;23;20310;-69
2023/12/11 10:40:52;;;;;;;17.08;3.25;;;24.70;84.40;;;;;;6125713;23;20425;-69
2023/12/11 10:43:19;;;;;;;11.13;2.47;;;24.70;84.50;;;;;;6126050;23;20002;-68
2023/12/11 10:45:47;;;;;;;12.35;2.50;;;24.70;84.60;;;;;;6126280;23;20010;-68
2023/12/11 10:48:14;;;;;;;16.30;3.05;;;24.70;84.80;;;;;;6125847;23;20375;-69
2023/12/11 10:50:42;;;;;;;15.02;2.75;;;24.70;85.00;;;;;;6125922;23;20014;-67
2023/12/11 10:53:09;;;;;;;13.40;3.30;;;24.60;85.30;;;;;;6100601;23;20433;-69
2023/12/11 10:55:39;;;;;;;16.67;3.25;;;24.60;85.50;;;;;;6125930;23;20010;-69
2023/12/11 10:58:10;;;;;;;12.75;2.35;;;24.60;85.90;;;;;;6126240;23;20077;-68
2023/12/11 11:00:38;;;;;;;16.88;2.53;;;24.60;85.90;;;;;;6100508;23;19999;-68
2023/12/11 11:03:06;;;;;;;11.15;2.67;;;24.50;86.10;;;;;;6100697;23;20020;-68
2023/12/11 11:05:34;;;;;;;17.13;2.78;;;24.50;86.20;;;;;;6100242;23;20053;-68
2023/12/11 11:08:20;;;;;;;15.48;2.55;;;24.60;86.30;;;;;;6076325;23;20081;-69
2023/12/11 11:11:04;;;;;;;15.10;2.70;;;24.60;86.30;;;;;;6103424;23;20024;-68
2023/12/11 11:13:47;;;;;;;15.75;3.22;;;24.50;86.10;;;;;;6126026;23;20009;-69
2023/12/11 11:16:14;;;;;;;10.65;2.55;;;24.40;85.80;;;;;;6126239;23;20037;-68
2023/12/11 11:19:06;;;;;;;16.55;2.47;;;24.40;86.00;;;;;;6126002;23;20002;-67
2023/12/11 11:21:33;;;;;;;8.63;2.22;;;24.40;85.80;;;;;;6125565;23;20551;-69
2023/12/11 11:24:00;;;;;;;8.48;2.22;;;24.50;85.60;;;;;;6100658;23;20006;-68
2023/12/11 11:26:34;;;;;;;19.38;3.35;;;24.50;85.60;;;;;;6125957;23;20010;-69
2023/12/11 11:29:03;;;;;;;17.38;2.50;;;24.50;85.20;;;;;;6126051;23;20417;-69
2023/12/11 11:31:50;;;;;;;12.52;2.67;;;24.50;85.40;;;;;;6125690;23;20418;-67
2023/12/11 11:34:44;;;;;;;7.53;2.33;;;24.50;85.60;;;;;;6126017;23;20006;-68
2023/12/11 11:37:20;;;;;;;12.43;2.30;;;24.50;85.50;;;;;;6103771;23;20491;-68
2023/12/11 11:40:01;;;;;;;13.48;3.08;;;24.50;85.60;;;;;;6125193;23;20017;-69
2023/12/11 11:42:38;;;;;;;12.55;2.45;;;24.50;85.70;;;;;;6125992;23;20009;-68
2023/12/11 11:45:11;;;;;;;17.60;2.78;;;24.50;85.80;;;;;;6125842;23;20002;-68
2023/12/11 11:47:38;;;;;;;11.35;2.42;;;24.50;85.90;;;;;;6125322;23;20011;-68
2023/12/11 11:50:10;;;;;;;12.85;2.78;;;24.50;86.10;;;;;;6125899;23;20141;-67
2023/12/11 11:52:45;;;;;;;13.02;2.90;;;24.50;86.10;;;;;;6125224;23;20033;-68
2023/12/11 11:55:25;;;;;;;10.68;2.30;;;24.50;86.20;;;;;;6079561;23;20391;-67
2023/12/11 11:57:53;;;;;;;15.02;2.60;;;24.50;86.30;;;;;;6125770;23;20306;-68
2023/12/11 12:00:31;;;;;;;19.60;3.13;;;24.50;86.60;;;;;;6125428;23;20101;-69
2023/12/11 12:03:00;;;;;;;12.85;2.22;;;24.50;86.40;;;;;;6125546;23;20013;-68
2023/12/11 12:05:27;;;;;;;12.48;2.65;;;24.50;86.60;;;;;;6125893;23;20002;-68
2023/12/11 12:07:55;;;;;;;13.93;2.70;;;24.40;86.40;;;;;;6126086;23;20342;-68
2023/12/11 12:10:22;;;;;;;15.40;2.95;;;24.40;86.60;;;;;;6125655;23;20010;-68
2023/12/11 12:12:59;;;;;;;12.27;2.95;;;24.40;86.70;;;;;;6125864;23;20307;-68
2023/12/11 12:15:26;;;;;;;13.10;3.25;;;24.40;86.90;;;;;;6101983;23;20013;-68
2023/12/11 12:17:53;;;;;;;15.57;3.83;;;24.40;87.00;;;;;;6126057;23;20081;-68
2023/12/11 12:20:21;;;;;;;10.68;2.45;;;24.40;86.80;;;;;;6125714;23;20057;-68
2023/12/11 12:23:01;;;;;;;13.52;2.92;;;24.40;87.00;;;;;;6125470;23;20037;-68
2023/12/11 12:25:27;;;;;;;;;;;24.40;87.10;;;;;;6126254;23;20378;-68
2023/12/11 12:27:57;;;;;;;16.90;2.83;;;24.30;86.90;;;;;;6125574;23;19905;-68
2023/12/11 12:30:24;;;;;;;14.73;2.60;;;24.30;87.00;;;;;;6125435;23;20014;-68
2023/12/11 12:32:52;;;;;;;13.80;2.92;;;24.30;87.00;;;;;;6099550;23;20052;-67
2023/12/11 12:35:19;;;;;;;17.08;3.15;;;24.30;87.00;;;;;;6076391;23;20325;-69
2023/12/11 12:37:48;;;;;;;18.08;2.90;;;24.30;87.10;;;;;;6099998;23;20005;-68
2023/12/11 12:40:18;;;;;;;12.23;2.92;;;24.30;87.10;;;;;;6125713;23;20006;-67
2023/12/11 12:42:45;;;;;;;18.77;3.08;;;24.30;87.00;;;;;;6124995;23;20418;-68
2023/12/11 12:45:24;;;;;;;19.83;3.00;;;24.30;87.20;;;;;;6099483;23;20010;-68